sensor_id;sensor_type;location;lat;lon;timestamp;temperature;humidity
48589;DHT22;34369;51.174;6.738;2023-05-29T00:00:27;15.70;45.50
48589;DHT22;34369;51.174;6.738;2023-05-29T00:03:00;15.60;45.50
48589;DHT22;34369;51.174;6.738;2023-05-29T00:05:32;15.60;45.50
48589;DHT22;34369;51.174;6.738;2023-05-29T00:08:06;15.50;45.70
48589;DHT22;34369;51.174;6.738;2023-05-29T00:10:38;15.50;45.70
48589;DHT22;34369;51.174;6.738;2023-05-29T00:13:10;15.50;45.90
48589;DHT22;34369;51.174;6.738;2023-05-29T00:15:44;15.50;46.00
48589;DHT22;34369;51.174;6.738;2023-05-29T00:18:16;15.30;46.20
48589;DHT22;34369;51.174;6.738;2023-05-29T00:20:49;15.30;46.10
48589;DHT22;34369;51.174;6.738;2023-05-29T00:23:21;15.30;46.10
48589;DHT22;34369;51.174;6.738;2023-05-29T00:25:53;15.30;46.30
48589;DHT22;34369;51.174;6.738;2023-05-29T00:28:26;15.20;46.30
48589;DHT22;34369;51.174;6.738;2023-05-29T00:30:59;15.10;46.40
48589;DHT22;34369;51.174;6.738;2023-05-29T00:33:31;15.10;46.50
48589;DHT22;34369;51.174;6.738;2023-05-29T00:36:04;15.00;46.60
48589;DHT22;34369;51.174;6.738;2023-05-29T00:38:38;15.00;46.70
48589;DHT22;34369;51.174;6.738;2023-05-29T00:41:13;15.00;46.80
48589;DHT22;34369;51.174;6.738;2023-05-29T00:43:47;15.00;46.90
48589;DHT22;34369;51.174;6.738;2023-05-29T00:46:20;14.90;46.90
48589;DHT22;34369;51.174;6.738;2023-05-29T00:48:53;14.90;46.90
48589;DHT22;34369;51.174;6.738;2023-05-29T00:51:27;14.80;47.10
48589;DHT22;34369;51.174;6.738;2023-05-29T00:53:59;14.70;47.20
48589;DHT22;34369;51.174;6.738;2023-05-29T00:56:32;14.70;47.30
48589;DHT22;34369;51.174;6.738;2023-05-29T00:59:05;14.70;47.40
48589;DHT22;34369;51.174;6.738;2023-05-29T01:01:39;14.60;47.50
48589;DHT22;34369;51.174;6.738;2023-05-29T01:04:12;14.60;47.60
48589;DHT22;34369;51.174;6.738;2023-05-29T01:06:47;14.50;47.70
48589;DHT22;34369;51.174;6.738;2023-05-29T01:09:19;14.50;47.80
48589;DHT22;34369;51.174;6.738;2023-05-29T01:11:58;14.50;48.00
48589;DHT22;34369;51.174;6.738;2023-05-29T01:14:43;14.40;48.40
48589;DHT22;34369;51.174;6.738;2023-05-29T01:17:26;14.40;48.70
48589;DHT22;34369;51.174;6.738;2023-05-29T01:20:18;14.30;48.50
48589;DHT22;34369;51.174;6.738;2023-05-29T01:26:47;14.20;48.90
48589;DHT22;34369;51.174;6.738;2023-05-29T01:29:24;14.20;49.10
48589;DHT22;34369;51.174;6.738;2023-05-29T01:31:59;14.20;49.20
48589;DHT22;34369;51.174;6.738;2023-05-29T01:34:32;14.10;49.20
48589;DHT22;34369;51.174;6.738;2023-05-29T01:37:04;14.00;49.40
48589;DHT22;34369;51.174;6.738;2023-05-29T01:39:37;14.00;49.60
48589;DHT22;34369;51.174;6.738;2023-05-29T01:42:12;13.90;49.80
48589;DHT22;34369;51.174;6.738;2023-05-29T01:44:45;13.90;50.10
48589;DHT22;34369;51.174;6.738;2023-05-29T01:47:18;13.90;50.20
48589;DHT22;34369;51.174;6.738;2023-05-29T01:49:51;13.90;50.30
48589;DHT22;34369;51.174;6.738;2023-05-29T01:52:25;13.80;50.50
48589;DHT22;34369;51.174;6.738;2023-05-29T01:54:57;13.70;50.70
48589;DHT22;34369;51.174;6.738;2023-05-29T01:57:31;13.70;50.80
48589;DHT22;34369;51.174;6.738;2023-05-29T02:00:04;13.60;51.10
48589;DHT22;34369;51.174;6.738;2023-05-29T02:02:39;13.60;51.00
48589;DHT22;34369;51.174;6.738;2023-05-29T02:05:11;13.60;51.10
48589;DHT22;34369;51.174;6.738;2023-05-29T02:07:43;13.50;51.40
48589;DHT22;34369;51.174;6.738;2023-05-29T02:10:17;13.50;51.50
48589;DHT22;34369;51.174;6.738;2023-05-29T02:12:51;13.50;51.60
48589;DHT22;34369;51.174;6.738;2023-05-29T02:15:24;13.40;51.60
48589;DHT22;34369;51.174;6.738;2023-05-29T02:17:56;13.30;51.80
48589;DHT22;34369;51.174;6.738;2023-05-29T02:20:31;13.30;52.00
48589;DHT22;34369;51.174;6.738;2023-05-29T02:23:03;13.30;52.20
48589;DHT22;34369;51.174;6.738;2023-05-29T02:25:36;13.20;52.20
48589;DHT22;34369;51.174;6.738;2023-05-29T02:28:12;13.20;52.30
48589;DHT22;34369;51.174;6.738;2023-05-29T02:30:44;13.10;52.30
48589;DHT22;34369;51.174;6.738;2023-05-29T02:33:16;13.10;52.40
48589;DHT22;34369;51.174;6.738;2023-05-29T02:35:48;13.10;52.40
48589;DHT22;34369;51.174;6.738;2023-05-29T02:38:20;13.00;52.60
48589;DHT22;34369;51.174;6.738;2023-05-29T02:40:54;13.00;52.60
48589;DHT22;34369;51.174;6.738;2023-05-29T02:43:27;13.00;52.70
48589;DHT22;34369;51.174;6.738;2023-05-29T02:46:00;12.90;52.90
48589;DHT22;34369;51.174;6.738;2023-05-29T02:48:33;12.90;52.90
48589;DHT22;34369;51.174;6.738;2023-05-29T02:51:05;12.80;53.00
48589;DHT22;34369;51.174;6.738;2023-05-29T02:53:37;12.80;53.10
48589;DHT22;34369;51.174;6.738;2023-05-29T02:56:10;12.80;53.30
48589;DHT22;34369;51.174;6.738;2023-05-29T02:58:44;12.70;53.30
48589;DHT22;34369;51.174;6.738;2023-05-29T03:01:18;12.70;53.40
48589;DHT22;34369;51.174;6.738;2023-05-29T03:03:52;12.70;53.30
48589;DHT22;34369;51.174;6.738;2023-05-29T03:06:26;12.60;53.40
48589;DHT22;34369;51.174;6.738;2023-05-29T03:08:59;12.50;53.40
48589;DHT22;34369;51.174;6.738;2023-05-29T03:11:32;12.50;53.50
48589;DHT22;34369;51.174;6.738;2023-05-29T03:14:08;12.50;53.50
48589;DHT22;34369;51.174;6.738;2023-05-29T03:16:40;12.40;53.70
48589;DHT22;34369;51.174;6.738;2023-05-29T03:19:14;12.40;53.60
48589;DHT22;34369;51.174;6.738;2023-05-29T03:21:47;12.40;53.50
48589;DHT22;34369;51.174;6.738;2023-05-29T03:24:20;12.30;53.70
48589;DHT22;34369;51.174;6.738;2023-05-29T03:26:54;12.30;53.60
48589;DHT22;34369;51.174;6.738;2023-05-29T03:29:29;12.20;53.60
48589;DHT22;34369;51.174;6.738;2023-05-29T03:32:02;12.10;53.70
48589;DHT22;34369;51.174;6.738;2023-05-29T03:34:35;12.10;53.70
48589;DHT22;34369;51.174;6.738;2023-05-29T03:37:07;12.10;53.80
48589;DHT22;34369;51.174;6.738;2023-05-29T03:39:42;12.00;53.70
48589;DHT22;34369;51.174;6.738;2023-05-29T03:42:16;12.00;53.70
48589;DHT22;34369;51.174;6.738;2023-05-29T03:44:51;12.00;53.90
48589;DHT22;34369;51.174;6.738;2023-05-29T03:47:24;11.90;54.00
48589;DHT22;34369;51.174;6.738;2023-05-29T03:49:56;11.90;53.90
48589;DHT22;34369;51.174;6.738;2023-05-29T03:52:29;11.90;53.90
48589;DHT22;34369;51.174;6.738;2023-05-29T03:55:02;11.80;53.90
48589;DHT22;34369;51.174;6.738;2023-05-29T03:57:35;11.80;54.10
48589;DHT22;34369;51.174;6.738;2023-05-29T04:00:12;11.80;54.00
48589;DHT22;34369;51.174;6.738;2023-05-29T04:02:45;11.80;54.30
48589;DHT22;34369;51.174;6.738;2023-05-29T04:05:18;11.70;54.20
48589;DHT22;34369;51.174;6.738;2023-05-29T04:07:52;11.70;54.20
48589;DHT22;34369;51.174;6.738;2023-05-29T04:10:24;11.70;54.30
48589;DHT22;34369;51.174;6.738;2023-05-29T04:13:10;11.70;54.30
48589;DHT22;34369;51.174;6.738;2023-05-29T04:15:46;11.60;54.80
48589;DHT22;34369;51.174;6.738;2023-05-29T04:18:19;11.60;54.60
48589;DHT22;34369;51.174;6.738;2023-05-29T04:20:52;11.60;54.40
48589;DHT22;34369;51.174;6.738;2023-05-29T04:23:25;11.60;54.50
48589;DHT22;34369;51.174;6.738;2023-05-29T04:25:58;11.60;54.70
48589;DHT22;34369;51.174;6.738;2023-05-29T04:28:32;11.60;54.60
48589;DHT22;34369;51.174;6.738;2023-05-29T04:31:06;11.60;54.60
48589;DHT22;34369;51.174;6.738;2023-05-29T04:33:39;11.60;54.70
48589;DHT22;34369;51.174;6.738;2023-05-29T04:36:12;11.60;55.00
48589;DHT22;34369;51.174;6.738;2023-05-29T04:38:45;11.60;55.00
48589;DHT22;34369;51.174;6.738;2023-05-29T04:41:21;11.60;55.00
48589;DHT22;34369;51.174;6.738;2023-05-29T04:43:59;11.60;55.00
48589;DHT22;34369;51.174;6.738;2023-05-29T04:46:35;11.60;55.20
48589;DHT22;34369;51.174;6.738;2023-05-29T04:49:08;11.60;55.20
48589;DHT22;34369;51.174;6.738;2023-05-29T04:51:47;11.60;55.10
48589;DHT22;34369;51.174;6.738;2023-05-29T04:54:23;11.60;55.30
48589;DHT22;34369;51.174;6.738;2023-05-29T04:56:55;11.60;55.20
48589;DHT22;34369;51.174;6.738;2023-05-29T04:59:29;11.60;55.20
48589;DHT22;34369;51.174;6.738;2023-05-29T05:02:04;11.60;55.30
48589;DHT22;34369;51.174;6.738;2023-05-29T05:04:37;11.70;55.40
48589;DHT22;34369;51.174;6.738;2023-05-29T05:07:10;11.70;55.30
48589;DHT22;34369;51.174;6.738;2023-05-29T05:09:46;11.70;55.30
48589;DHT22;34369;51.174;6.738;2023-05-29T05:12:19;11.70;55.20
48589;DHT22;34369;51.174;6.738;2023-05-29T05:14:51;11.70;55.30
48589;DHT22;34369;51.174;6.738;2023-05-29T05:17:26;11.70;55.30
48589;DHT22;34369;51.174;6.738;2023-05-29T05:20:01;11.80;55.40
48589;DHT22;34369;51.174;6.738;2023-05-29T05:22:36;11.80;55.50
48589;DHT22;34369;51.174;6.738;2023-05-29T05:25:09;11.80;55.30
48589;DHT22;34369;51.174;6.738;2023-05-29T05:27:42;11.80;55.30
48589;DHT22;34369;51.174;6.738;2023-05-29T05:30:14;11.80;55.50
48589;DHT22;34369;51.174;6.738;2023-05-29T05:32:50;11.90;55.40
48589;DHT22;34369;51.174;6.738;2023-05-29T05:35:22;11.90;55.50
48589;DHT22;34369;51.174;6.738;2023-05-29T05:37:55;11.90;55.40
48589;DHT22;34369;51.174;6.738;2023-05-29T05:40:28;12.00;55.40
48589;DHT22;34369;51.174;6.738;2023-05-29T05:43:01;12.00;55.30
48589;DHT22;34369;51.174;6.738;2023-05-29T05:45:38;12.00;55.20
48589;DHT22;34369;51.174;6.738;2023-05-29T05:48:19;12.10;55.30
48589;DHT22;34369;51.174;6.738;2023-05-29T05:50:52;12.10;55.50
48589;DHT22;34369;51.174;6.738;2023-05-29T05:53:24;12.10;55.30
48589;DHT22;34369;51.174;6.738;2023-05-29T05:55:57;12.10;55.00
48589;DHT22;34369;51.174;6.738;2023-05-29T05:58:30;12.20;55.10
48589;DHT22;34369;51.174;6.738;2023-05-29T06:01:05;12.20;55.10
48589;DHT22;34369;51.174;6.738;2023-05-29T06:03:40;12.20;55.10
48589;DHT22;34369;51.174;6.738;2023-05-29T06:06:13;12.30;55.00
48589;DHT22;34369;51.174;6.738;2023-05-29T06:08:48;12.30;55.00
48589;DHT22;34369;51.174;6.738;2023-05-29T06:11:20;12.40;54.90
48589;DHT22;34369;51.174;6.738;2023-05-29T06:13:55;12.40;55.00
48589;DHT22;34369;51.174;6.738;2023-05-29T06:16:33;12.50;54.80
48589;DHT22;34369;51.174;6.738;2023-05-29T06:19:08;12.50;54.70
48589;DHT22;34369;51.174;6.738;2023-05-29T06:21:42;12.50;54.60
48589;DHT22;34369;51.174;6.738;2023-05-29T06:24:16;12.70;54.50
48589;DHT22;34369;51.174;6.738;2023-05-29T06:26:49;12.70;54.50
48589;DHT22;34369;51.174;6.738;2023-05-29T06:29:22;12.70;54.40
48589;DHT22;34369;51.174;6.738;2023-05-29T06:31:54;12.80;54.20
48589;DHT22;34369;51.174;6.738;2023-05-29T06:34:29;12.80;54.30
48589;DHT22;34369;51.174;6.738;2023-05-29T06:37:01;12.90;54.60
48589;DHT22;34369;51.174;6.738;2023-05-29T06:39:33;13.00;54.30
48589;DHT22;34369;51.174;6.738;2023-05-29T06:42:06;13.00;54.20
48589;DHT22;34369;51.174;6.738;2023-05-29T06:44:39;13.10;54.00
48589;DHT22;34369;51.174;6.738;2023-05-29T06:47:14;13.10;54.00
48589;DHT22;34369;51.174;6.738;2023-05-29T06:49:53;13.20;54.00
48589;DHT22;34369;51.174;6.738;2023-05-29T06:52:27;13.30;54.00
48589;DHT22;34369;51.174;6.738;2023-05-29T06:55:03;13.40;53.90
48589;DHT22;34369;51.174;6.738;2023-05-29T06:57:37;13.50;53.80
48589;DHT22;34369;51.174;6.738;2023-05-29T07:00:10;13.50;53.70
48589;DHT22;34369;51.174;6.738;2023-05-29T07:02:44;13.60;53.50
48589;DHT22;34369;51.174;6.738;2023-05-29T07:05:19;13.80;53.40
48589;DHT22;34369;51.174;6.738;2023-05-29T07:07:52;13.90;53.30
48589;DHT22;34369;51.174;6.738;2023-05-29T07:10:25;14.00;53.10
48589;DHT22;34369;51.174;6.738;2023-05-29T07:12:57;14.10;52.90
48589;DHT22;34369;51.174;6.738;2023-05-29T07:15:30;14.20;52.80
48589;DHT22;34369;51.174;6.738;2023-05-29T07:18:04;14.20;52.70
48589;DHT22;34369;51.174;6.738;2023-05-29T07:20:41;14.30;52.50
48589;DHT22;34369;51.174;6.738;2023-05-29T07:23:13;14.40;52.50
48589;DHT22;34369;51.174;6.738;2023-05-29T07:25:47;14.40;52.20
48589;DHT22;34369;51.174;6.738;2023-05-29T07:28:21;14.50;52.20
48589;DHT22;34369;51.174;6.738;2023-05-29T07:30:54;14.50;52.20
48589;DHT22;34369;51.174;6.738;2023-05-29T07:34:17;14.60;52.30
48589;DHT22;34369;51.174;6.738;2023-05-29T07:44:29;14.80;51.70
48589;DHT22;34369;51.174;6.738;2023-05-29T07:47:50;14.90;51.70
48589;DHT22;34369;51.174;6.738;2023-05-29T07:50:34;15.00;52.20
48589;DHT22;34369;51.174;6.738;2023-05-29T08:00:52;15.90;51.50
48589;DHT22;34369;51.174;6.738;2023-05-29T08:03:25;16.30;51.90
48589;DHT22;34369;51.174;6.738;2023-05-29T08:06:02;16.70;51.60
48589;DHT22;34369;51.174;6.738;2023-05-29T08:08:43;17.00;51.00
48589;DHT22;34369;51.174;6.738;2023-05-29T08:11:18;17.50;50.60
48589;DHT22;34369;51.174;6.738;2023-05-29T08:13:56;17.80;50.10
48589;DHT22;34369;51.174;6.738;2023-05-29T08:16:29;18.20;49.50
48589;DHT22;34369;51.174;6.738;2023-05-29T08:19:04;18.50;48.80
48589;DHT22;34369;51.174;6.738;2023-05-29T08:21:39;18.90;48.30
48589;DHT22;34369;51.174;6.738;2023-05-29T08:24:11;19.20;48.30
48589;DHT22;34369;51.174;6.738;2023-05-29T08:26:45;19.50;47.90
48589;DHT22;34369;51.174;6.738;2023-05-29T08:29:23;19.80;47.00
48589;DHT22;34369;51.174;6.738;2023-05-29T08:31:56;20.10;46.30
48589;DHT22;34369;51.174;6.738;2023-05-29T08:34:29;20.30;45.70
48589;DHT22;34369;51.174;6.738;2023-05-29T08:37:03;20.60;45.40
48589;DHT22;34369;51.174;6.738;2023-05-29T08:39:36;20.80;45.20
48589;DHT22;34369;51.174;6.738;2023-05-29T08:42:13;21.00;44.90
48589;DHT22;34369;51.174;6.738;2023-05-29T08:44:54;21.10;44.20
48589;DHT22;34369;51.174;6.738;2023-05-29T08:47:32;21.40;43.70
48589;DHT22;34369;51.174;6.738;2023-05-29T08:50:07;21.50;43.30
48589;DHT22;34369;51.174;6.738;2023-05-29T08:52:40;21.70;43.10
48589;DHT22;34369;51.174;6.738;2023-05-29T08:55:13;21.90;43.00
48589;DHT22;34369;51.174;6.738;2023-05-29T08:57:46;22.10;42.90
48589;DHT22;34369;51.174;6.738;2023-05-29T09:00:20;22.20;42.90
48589;DHT22;34369;51.174;6.738;2023-05-29T09:02:59;22.50;42.20
48589;DHT22;34369;51.174;6.738;2023-05-29T09:05:31;22.50;42.10
48589;DHT22;34369;51.174;6.738;2023-05-29T09:08:04;22.70;41.30
48589;DHT22;34369;51.174;6.738;2023-05-29T09:10:36;22.80;41.30
48589;DHT22;34369;51.174;6.738;2023-05-29T09:13:09;22.90;41.20
48589;DHT22;34369;51.174;6.738;2023-05-29T09:15:44;23.00;41.10
48589;DHT22;34369;51.174;6.738;2023-05-29T09:18:18;23.10;40.90
48589;DHT22;34369;51.174;6.738;2023-05-29T09:20:53;23.20;41.20
48589;DHT22;34369;51.174;6.738;2023-05-29T09:23:26;23.30;41.00
48589;DHT22;34369;51.174;6.738;2023-05-29T09:26:02;23.30;40.50
48589;DHT22;34369;51.174;6.738;2023-05-29T09:28:36;23.50;40.50
48589;DHT22;34369;51.174;6.738;2023-05-29T09:31:16;23.50;40.10
48589;DHT22;34369;51.174;6.738;2023-05-29T09:33:51;23.50;39.80
48589;DHT22;34369;51.174;6.738;2023-05-29T09:36:23;23.40;39.80
48589;DHT22;34369;51.174;6.738;2023-05-29T09:38:57;23.30;39.90
48589;DHT22;34369;51.174;6.738;2023-05-29T09:41:36;23.30;39.70
48589;DHT22;34369;51.174;6.738;2023-05-29T09:44:16;23.10;39.70
48589;DHT22;34369;51.174;6.738;2023-05-29T09:46:50;23.00;40.00
48589;DHT22;34369;51.174;6.738;2023-05-29T09:49:25;22.80;40.00
48589;DHT22;34369;51.174;6.738;2023-05-29T09:51:59;22.60;40.00
48589;DHT22;34369;51.174;6.738;2023-05-29T09:54:38;22.50;40.70
48589;DHT22;34369;51.174;6.738;2023-05-29T09:57:28;22.30;40.60
48589;DHT22;34369;51.174;6.738;2023-05-29T10:00:10;22.20;40.50
48589;DHT22;34369;51.174;6.738;2023-05-29T10:02:45;22.00;40.70
48589;DHT22;34369;51.174;6.738;2023-05-29T10:05:22;21.90;40.90
48589;DHT22;34369;51.174;6.738;2023-05-29T10:08:00;21.70;41.00
48589;DHT22;34369;51.174;6.738;2023-05-29T10:10:42;21.60;40.90
48589;DHT22;34369;51.174;6.738;2023-05-29T10:13:17;21.50;41.40
48589;DHT22;34369;51.174;6.738;2023-05-29T10:15:51;21.40;41.50
48589;DHT22;34369;51.174;6.738;2023-05-29T10:18:31;21.30;41.70
48589;DHT22;34369;51.174;6.738;2023-05-29T10:21:07;21.10;41.50
48589;DHT22;34369;51.174;6.738;2023-05-29T10:23:46;21.10;42.10
48589;DHT22;34369;51.174;6.738;2023-05-29T10:26:21;21.10;42.10
48589;DHT22;34369;51.174;6.738;2023-05-29T10:29:05;21.10;41.90
48589;DHT22;34369;51.174;6.738;2023-05-29T10:31:48;21.00;42.00
48589;DHT22;34369;51.174;6.738;2023-05-29T10:34:33;21.00;42.10
48589;DHT22;34369;51.174;6.738;2023-05-29T10:37:21;21.00;42.30
48589;DHT22;34369;51.174;6.738;2023-05-29T10:40:05;21.00;42.40
48589;DHT22;34369;51.174;6.738;2023-05-29T10:42:44;21.10;42.20
48589;DHT22;34369;51.174;6.738;2023-05-29T10:45:53;21.10;42.50
48589;DHT22;34369;51.174;6.738;2023-05-29T10:48:40;21.10;43.10
48589;DHT22;34369;51.174;6.738;2023-05-29T10:51:27;21.30;42.70
48589;DHT22;34369;51.174;6.738;2023-05-29T10:54:08;21.40;42.50
48589;DHT22;34369;51.174;6.738;2023-05-29T10:56:58;21.50;42.20
48589;DHT22;34369;51.174;6.738;2023-05-29T10:59:37;21.70;42.10
48589;DHT22;34369;51.174;6.738;2023-05-29T11:02:17;21.80;42.20
48589;DHT22;34369;51.174;6.738;2023-05-29T11:05:21;21.90;42.20
48589;DHT22;34369;51.174;6.738;2023-05-29T11:08:00;22.10;41.80
48589;DHT22;34369;51.174;6.738;2023-05-29T11:10:43;22.30;42.30
48589;DHT22;34369;51.174;6.738;2023-05-29T11:13:32;22.50;41.40
48589;DHT22;34369;51.174;6.738;2023-05-29T11:16:11;22.60;41.50
48589;DHT22;34369;51.174;6.738;2023-05-29T11:18:46;22.70;40.70
48589;DHT22;34369;51.174;6.738;2023-05-29T11:21:28;22.80;41.00
48589;DHT22;34369;51.174;6.738;2023-05-29T11:24:06;22.90;40.70
48589;DHT22;34369;51.174;6.738;2023-05-29T11:26:40;22.90;40.80
48589;DHT22;34369;51.174;6.738;2023-05-29T11:29:21;23.00;41.00
48589;DHT22;34369;51.174;6.738;2023-05-29T11:31:58;23.10;41.10
48589;DHT22;34369;51.174;6.738;2023-05-29T11:34:39;23.10;41.00
48589;DHT22;34369;51.174;6.738;2023-05-29T11:37:13;23.20;40.20
48589;DHT22;34369;51.174;6.738;2023-05-29T11:39:49;23.30;39.80
48589;DHT22;34369;51.174;6.738;2023-05-29T11:42:21;23.30;40.30
48589;DHT22;34369;51.174;6.738;2023-05-29T11:45:09;23.40;39.60
48589;DHT22;34369;51.174;6.738;2023-05-29T11:47:53;23.50;39.60
48589;DHT22;34369;51.174;6.738;2023-05-29T11:50:28;23.50;39.20
48589;DHT22;34369;51.174;6.738;2023-05-29T11:53:01;23.50;39.50
48589;DHT22;34369;51.174;6.738;2023-05-29T11:55:36;23.50;39.70
48589;DHT22;34369;51.174;6.738;2023-05-29T11:58:08;23.50;39.70
48589;DHT22;34369;51.174;6.738;2023-05-29T12:00:42;23.50;39.80
48589;DHT22;34369;51.174;6.738;2023-05-29T12:03:19;23.50;39.80
48589;DHT22;34369;51.174;6.738;2023-05-29T12:05:53;23.60;39.70
48589;DHT22;34369;51.174;6.738;2023-05-29T12:08:26;23.60;39.70
48589;DHT22;34369;51.174;6.738;2023-05-29T12:11:00;23.60;39.50
48589;DHT22;34369;51.174;6.738;2023-05-29T12:13:35;23.70;40.00
48589;DHT22;34369;51.174;6.738;2023-05-29T12:16:07;23.60;39.30
48589;DHT22;34369;51.174;6.738;2023-05-29T12:18:40;23.70;39.50
48589;DHT22;34369;51.174;6.738;2023-05-29T12:21:14;23.70;39.80
48589;DHT22;34369;51.174;6.738;2023-05-29T12:23:48;23.70;39.80
48589;DHT22;34369;51.174;6.738;2023-05-29T12:26:27;23.70;40.00
48589;DHT22;34369;51.174;6.738;2023-05-29T12:29:04;23.80;39.50
48589;DHT22;34369;51.174;6.738;2023-05-29T12:31:38;23.90;39.30
48589;DHT22;34369;51.174;6.738;2023-05-29T12:34:11;23.90;39.20
48589;DHT22;34369;51.174;6.738;2023-05-29T12:36:46;23.80;39.30
48589;DHT22;34369;51.174;6.738;2023-05-29T12:39:21;23.90;39.50
48589;DHT22;34369;51.174;6.738;2023-05-29T12:41:57;23.80;39.00
48589;DHT22;34369;51.174;6.738;2023-05-29T12:44:30;23.80;39.10
48589;DHT22;34369;51.174;6.738;2023-05-29T12:47:08;23.80;39.00
48589;DHT22;34369;51.174;6.738;2023-05-29T12:49:45;23.80;39.40
48589;DHT22;34369;51.174;6.738;2023-05-29T12:52:21;23.90;39.10
48589;DHT22;34369;51.174;6.738;2023-05-29T12:54:56;23.90;38.50
48589;DHT22;34369;51.174;6.738;2023-05-29T12:57:30;23.90;39.20
48589;DHT22;34369;51.174;6.738;2023-05-29T13:00:04;23.90;39.20
48589;DHT22;34369;51.174;6.738;2023-05-29T13:02:41;23.90;39.30
48589;DHT22;34369;51.174;6.738;2023-05-29T13:05:13;23.90;38.90
48589;DHT22;34369;51.174;6.738;2023-05-29T13:07:47;23.90;39.20
48589;DHT22;34369;51.174;6.738;2023-05-29T13:10:22;23.90;39.30
48589;DHT22;34369;51.174;6.738;2023-05-29T13:12:58;23.90;39.00
48589;DHT22;34369;51.174;6.738;2023-05-29T13:16:17;24.00;39.30
48589;DHT22;34369;51.174;6.738;2023-05-29T13:22:11;24.20;38.50
48589;DHT22;34369;51.174;6.738;2023-05-29T13:24:48;24.20;39.00
48589;DHT22;34369;51.174;6.738;2023-05-29T13:27:22;24.30;38.90
48589;DHT22;34369;51.174;6.738;2023-05-29T13:29:55;24.30;38.40
48589;DHT22;34369;51.174;6.738;2023-05-29T13:32:29;24.40;38.50
48589;DHT22;34369;51.174;6.738;2023-05-29T13:35:02;24.40;38.60
48589;DHT22;34369;51.174;6.738;2023-05-29T13:37:35;24.40;38.70
48589;DHT22;34369;51.174;6.738;2023-05-29T13:40:08;24.50;38.70
48589;DHT22;34369;51.174;6.738;2023-05-29T13:42:45;24.50;38.00
48589;DHT22;34369;51.174;6.738;2023-05-29T13:45:22;24.50;38.20
48589;DHT22;34369;51.174;6.738;2023-05-29T13:47:54;24.50;38.10
48589;DHT22;34369;51.174;6.738;2023-05-29T13:50:27;24.50;38.10
48589;DHT22;34369;51.174;6.738;2023-05-29T13:53:03;24.40;38.30
48589;DHT22;34369;51.174;6.738;2023-05-29T13:55:37;24.40;39.00
48589;DHT22;34369;51.174;6.738;2023-05-29T13:58:11;24.40;38.60
48589;DHT22;34369;51.174;6.738;2023-05-29T14:00:45;24.30;38.20
48589;DHT22;34369;51.174;6.738;2023-05-29T14:03:18;24.30;38.50
48589;DHT22;34369;51.174;6.738;2023-05-29T14:05:52;24.30;38.00
48589;DHT22;34369;51.174;6.738;2023-05-29T14:08:30;24.30;38.10
48589;DHT22;34369;51.174;6.738;2023-05-29T14:11:03;24.30;38.30
48589;DHT22;34369;51.174;6.738;2023-05-29T14:13:36;24.30;38.40
48589;DHT22;34369;51.174;6.738;2023-05-29T14:16:15;24.20;38.70
48589;DHT22;34369;51.174;6.738;2023-05-29T14:18:48;24.20;38.30
48589;DHT22;34369;51.174;6.738;2023-05-29T14:21:40;24.20;38.40
48589;DHT22;34369;51.174;6.738;2023-05-29T14:24:14;24.20;38.50
48589;DHT22;34369;51.174;6.738;2023-05-29T14:26:55;24.20;38.70
48589;DHT22;34369;51.174;6.738;2023-05-29T14:29:31;24.20;38.40
48589;DHT22;34369;51.174;6.738;2023-05-29T14:32:07;24.10;38.30
48589;DHT22;34369;51.174;6.738;2023-05-29T14:34:41;24.10;38.30
48589;DHT22;34369;51.174;6.738;2023-05-29T14:37:14;24.10;38.50
48589;DHT22;34369;51.174;6.738;2023-05-29T14:39:46;24.00;38.10
48589;DHT22;34369;51.174;6.738;2023-05-29T14:42:19;24.00;37.60
48589;DHT22;34369;51.174;6.738;2023-05-29T14:44:51;23.90;37.50
48589;DHT22;34369;51.174;6.738;2023-05-29T14:47:25;23.90;37.80
48589;DHT22;34369;51.174;6.738;2023-05-29T14:50:00;23.90;38.00
48589;DHT22;34369;51.174;6.738;2023-05-29T14:52:55;23.70;38.00
48589;DHT22;34369;51.174;6.738;2023-05-29T14:55:30;23.60;38.00
48589;DHT22;34369;51.174;6.738;2023-05-29T14:58:08;23.60;38.30
48589;DHT22;34369;51.174;6.738;2023-05-29T15:00:41;23.50;38.30
48589;DHT22;34369;51.174;6.738;2023-05-29T15:03:15;23.50;38.40
48589;DHT22;34369;51.174;6.738;2023-05-29T15:09:00;23.30;38.40
48589;DHT22;34369;51.174;6.738;2023-05-29T15:11:38;23.30;38.60
48589;DHT22;34369;51.174;6.738;2023-05-29T15:14:13;23.30;38.40
48589;DHT22;34369;51.174;6.738;2023-05-29T15:16:56;23.30;38.40
48589;DHT22;34369;51.174;6.738;2023-05-29T15:19:34;23.30;38.40
48589;DHT22;34369;51.174;6.738;2023-05-29T15:22:09;23.30;38.50
48589;DHT22;34369;51.174;6.738;2023-05-29T15:24:46;23.30;38.60
48589;DHT22;34369;51.174;6.738;2023-05-29T15:27:25;23.30;38.00
48589;DHT22;34369;51.174;6.738;2023-05-29T15:30:09;23.30;37.70
48589;DHT22;34369;51.174;6.738;2023-05-29T15:32:50;23.30;38.70
48589;DHT22;34369;51.174;6.738;2023-05-29T15:35:35;23.30;38.10
48589;DHT22;34369;51.174;6.738;2023-05-29T15:38:29;23.30;37.70
48589;DHT22;34369;51.174;6.738;2023-05-29T15:41:04;23.40;37.80
48589;DHT22;34369;51.174;6.738;2023-05-29T15:43:41;23.40;37.60
48589;DHT22;34369;51.174;6.738;2023-05-29T15:46:13;23.50;37.30
48589;DHT22;34369;51.174;6.738;2023-05-29T15:48:52;23.50;37.40
48589;DHT22;34369;51.174;6.738;2023-05-29T15:51:27;23.50;37.60
48589;DHT22;34369;51.174;6.738;2023-05-29T15:53:59;23.50;37.60
48589;DHT22;34369;51.174;6.738;2023-05-29T15:56:31;23.50;37.20
48589;DHT22;34369;51.174;6.738;2023-05-29T15:59:04;23.50;37.30
48589;DHT22;34369;51.174;6.738;2023-05-29T16:01:37;23.60;36.80
48589;DHT22;34369;51.174;6.738;2023-05-29T16:04:11;23.60;36.70
48589;DHT22;34369;51.174;6.738;2023-05-29T16:06:45;23.70;36.80
48589;DHT22;34369;51.174;6.738;2023-05-29T16:09:17;23.70;36.50
48589;DHT22;34369;51.174;6.738;2023-05-29T16:11:51;23.70;36.90
48589;DHT22;34369;51.174;6.738;2023-05-29T16:14:24;23.80;36.60
48589;DHT22;34369;51.174;6.738;2023-05-29T16:16:57;23.90;36.40
48589;DHT22;34369;51.174;6.738;2023-05-29T16:19:29;23.90;36.80
48589;DHT22;34369;51.174;6.738;2023-05-29T16:22:03;23.90;36.70
48589;DHT22;34369;51.174;6.738;2023-05-29T16:24:36;23.90;35.90
48589;DHT22;34369;51.174;6.738;2023-05-29T16:27:08;23.90;36.40
48589;DHT22;34369;51.174;6.738;2023-05-29T16:29:40;23.90;36.10
48589;DHT22;34369;51.174;6.738;2023-05-29T16:32:13;23.90;36.10
48589;DHT22;34369;51.174;6.738;2023-05-29T16:34:48;23.90;36.00
48589;DHT22;34369;51.174;6.738;2023-05-29T16:37:28;23.90;35.80
48589;DHT22;34369;51.174;6.738;2023-05-29T16:40:02;23.90;35.30
48589;DHT22;34369;51.174;6.738;2023-05-29T16:42:35;23.90;35.20
48589;DHT22;34369;51.174;6.738;2023-05-29T16:45:08;23.90;35.30
48589;DHT22;34369;51.174;6.738;2023-05-29T16:47:42;23.80;35.20